sensor_id;sensor_type;location;lat;lon;timestamp;temperature;humidity
35593;DHT22;64447;52.140;5.602;2024-02-14T00:01:53;8.40;99.90
35593;DHT22;64447;52.140;5.602;2024-02-14T00:04:19;8.40;99.90
35593;DHT22;64447;52.140;5.602;2024-02-14T00:06:46;8.50;99.90
35593;DHT22;64447;52.140;5.602;2024-02-14T00:09:11;8.50;99.90
35593;DHT22;64447;52.140;5.602;2024-02-14T00:11:37;8.50;99.90
35593;DHT22;64447;52.140;5.602;2024-02-14T00:14:03;8.50;99.90
35593;DHT22;64447;52.140;5.602;2024-02-14T00:16:29;8.60;99.90
35593;DHT22;64447;52.140;5.602;2024-02-14T00:18:57;8.50;99.90
35593;DHT22;64447;52.140;5.602;2024-02-14T00:21:23;8.50;99.90
35593;DHT22;64447;52.140;5.602;2024-02-14T00:23:52;8.50;99.90
35593;DHT22;64447;52.140;5.602;2024-02-14T00:26:17;8.60;99.90
35593;DHT22;64447;52.140;5.602;2024-02-14T00:28:43;8.70;99.90
35593;DHT22;64447;52.140;5.602;2024-02-14T00:31:09;8.70;99.90
35593;DHT22;64447;52.140;5.602;2024-02-14T00:33:34;8.60;99.90
35593;DHT22;64447;52.140;5.602;2024-02-14T00:36:00;8.60;99.90
35593;DHT22;64447;52.140;5.602;2024-02-14T00:38:25;8.60;99.90
35593;DHT22;64447;52.140;5.602;2024-02-14T00:40:51;8.60;99.90
35593;DHT22;64447;52.140;5.602;2024-02-14T00:43:17;8.60;99.90
35593;DHT22;64447;52.140;5.602;2024-02-14T00:45:42;8.60;99.90
35593;DHT22;64447;52.140;5.602;2024-02-14T00:48:08;8.60;99.90
35593;DHT22;64447;52.140;5.602;2024-02-14T00:50:33;8.60;99.90
35593;DHT22;64447;52.140;5.602;2024-02-14T00:52:59;8.00;99.90
35593;DHT22;64447;52.140;5.602;2024-02-14T00:55:25;8.70;99.90
35593;DHT22;64447;52.140;5.602;2024-02-14T00:57:51;8.70;99.90
35593;DHT22;64447;52.140;5.602;2024-02-14T01:00:17;8.70;99.90
35593;DHT22;64447;52.140;5.602;2024-02-14T01:02:44;8.70;99.90
35593;DHT22;64447;52.140;5.602;2024-02-14T01:05:10;8.70;99.90
35593;DHT22;64447;52.140;5.602;2024-02-14T01:07:36;8.80;99.90
35593;DHT22;64447;52.140;5.602;2024-02-14T01:10:02;8.70;99.90
35593;DHT22;64447;52.140;5.602;2024-02-14T01:12:28;8.80;99.90
35593;DHT22;64447;52.140;5.602;2024-02-14T01:14:57;8.80;99.90
35593;DHT22;64447;52.140;5.602;2024-02-14T01:17:23;8.80;99.90
35593;DHT22;64447;52.140;5.602;2024-02-14T01:19:49;8.80;99.90
35593;DHT22;64447;52.140;5.602;2024-02-14T01:22:15;8.80;99.90
35593;DHT22;64447;52.140;5.602;2024-02-14T01:24:42;8.80;99.90
35593;DHT22;64447;52.140;5.602;2024-02-14T01:27:08;8.80;99.90
35593;DHT22;64447;52.140;5.602;2024-02-14T01:29:34;8.80;99.90
35593;DHT22;64447;52.140;5.602;2024-02-14T01:32:00;8.80;99.90
35593;DHT22;64447;52.140;5.602;2024-02-14T01:34:26;8.90;99.90
35593;DHT22;64447;52.140;5.602;2024-02-14T01:36:54;8.90;99.90
35593;DHT22;64447;52.140;5.602;2024-02-14T01:39:20;8.90;99.90
35593;DHT22;64447;52.140;5.602;2024-02-14T01:41:48;8.90;99.90
35593;DHT22;64447;52.140;5.602;2024-02-14T01:44:17;8.90;99.90
35593;DHT22;64447;52.140;5.602;2024-02-14T01:46:44;8.90;99.90
35593;DHT22;64447;52.140;5.602;2024-02-14T01:49:10;8.90;99.90
35593;DHT22;64447;52.140;5.602;2024-02-14T01:51:40;9.00;99.90
35593;DHT22;64447;52.140;5.602;2024-02-14T01:54:08;8.90;99.90
35593;DHT22;64447;52.140;5.602;2024-02-14T01:56:35;8.90;99.90
35593;DHT22;64447;52.140;5.602;2024-02-14T01:59:01;9.00;99.90
35593;DHT22;64447;52.140;5.602;2024-02-14T02:01:27;8.90;99.90
35593;DHT22;64447;52.140;5.602;2024-02-14T02:03:53;9.00;99.90
35593;DHT22;64447;52.140;5.602;2024-02-14T02:06:19;9.10;99.90
35593;DHT22;64447;52.140;5.602;2024-02-14T02:08:45;9.10;99.90
35593;DHT22;64447;52.140;5.602;2024-02-14T02:11:11;9.10;99.90
35593;DHT22;64447;52.140;5.602;2024-02-14T02:13:36;9.10;99.90
35593;DHT22;64447;52.140;5.602;2024-02-14T02:16:05;9.10;99.90
35593;DHT22;64447;52.140;5.602;2024-02-14T02:18:32;9.10;99.90
35593;DHT22;64447;52.140;5.602;2024-02-14T02:20:57;9.10;99.90
35593;DHT22;64447;52.140;5.602;2024-02-14T02:23:23;9.10;99.90
35593;DHT22;64447;52.140;5.602;2024-02-14T02:25:49;9.20;99.90
35593;DHT22;64447;52.140;5.602;2024-02-14T02:28:15;9.20;99.90
35593;DHT22;64447;52.140;5.602;2024-02-14T02:30:41;9.20;99.90
35593;DHT22;64447;52.140;5.602;2024-02-14T02:33:07;9.20;99.90
35593;DHT22;64447;52.140;5.602;2024-02-14T02:35:33;9.20;99.90
35593;DHT22;64447;52.140;5.602;2024-02-14T02:37:59;9.20;99.90
35593;DHT22;64447;52.140;5.602;2024-02-14T02:40:25;9.20;99.90
35593;DHT22;64447;52.140;5.602;2024-02-14T02:42:53;9.20;99.90
35593;DHT22;64447;52.140;5.602;2024-02-14T02:45:18;9.20;99.90
35593;DHT22;64447;52.140;5.602;2024-02-14T02:47:44;9.20;99.90
35593;DHT22;64447;52.140;5.602;2024-02-14T02:50:10;9.20;99.90
35593;DHT22;64447;52.140;5.602;2024-02-14T02:52:35;9.30;99.90
35593;DHT22;64447;52.140;5.602;2024-02-14T02:55:01;9.20;99.90
35593;DHT22;64447;52.140;5.602;2024-02-14T02:57:28;9.20;99.90
35593;DHT22;64447;52.140;5.602;2024-02-14T02:59:54;9.30;99.90
35593;DHT22;64447;52.140;5.602;2024-02-14T03:02:20;9.30;99.90
35593;DHT22;64447;52.140;5.602;2024-02-14T03:04:46;9.20;99.90
35593;DHT22;64447;52.140;5.602;2024-02-14T03:07:12;9.30;99.90
35593;DHT22;64447;52.140;5.602;2024-02-14T03:09:38;9.30;99.90
35593;DHT22;64447;52.140;5.602;2024-02-14T03:12:04;9.30;99.90
35593;DHT22;64447;52.140;5.602;2024-02-14T03:14:31;9.30;99.90
35593;DHT22;64447;52.140;5.602;2024-02-14T03:17:04;9.30;99.90
35593;DHT22;64447;52.140;5.602;2024-02-14T03:19:30;9.30;99.90
35593;DHT22;64447;52.140;5.602;2024-02-14T03:21:56;9.30;99.90
35593;DHT22;64447;52.140;5.602;2024-02-14T03:24:23;9.30;99.90
35593;DHT22;64447;52.140;5.602;2024-02-14T03:26:52;9.30;99.90
35593;DHT22;64447;52.140;5.602;2024-02-14T03:29:20;9.30;99.90
35593;DHT22;64447;52.140;5.602;2024-02-14T03:31:47;9.40;99.90
35593;DHT22;64447;52.140;5.602;2024-02-14T03:34:12;9.40;99.90
35593;DHT22;64447;52.140;5.602;2024-02-14T03:36:38;9.40;99.90
35593;DHT22;64447;52.140;5.602;2024-02-14T03:39:05;9.40;99.90
35593;DHT22;64447;52.140;5.602;2024-02-14T03:41:31;10.10;99.90
35593;DHT22;64447;52.140;5.602;2024-02-14T03:43:57;9.50;99.90
35593;DHT22;64447;52.140;5.602;2024-02-14T03:46:28;9.50;99.90
35593;DHT22;64447;52.140;5.602;2024-02-14T03:48:57;9.50;99.90
35593;DHT22;64447;52.140;5.602;2024-02-14T03:51:25;9.50;99.90
35593;DHT22;64447;52.140;5.602;2024-02-14T03:53:51;9.50;99.90
35593;DHT22;64447;52.140;5.602;2024-02-14T03:56:17;9.60;99.90
35593;DHT22;64447;52.140;5.602;2024-02-14T03:58:43;9.60;99.90
35593;DHT22;64447;52.140;5.602;2024-02-14T04:01:09;9.60;99.90
35593;DHT22;64447;52.140;5.602;2024-02-14T04:03:34;9.60;99.90
35593;DHT22;64447;52.140;5.602;2024-02-14T04:06:00;9.70;99.90
35593;DHT22;64447;52.140;5.602;2024-02-14T04:08:26;9.70;99.90
35593;DHT22;64447;52.140;5.602;2024-02-14T04:10:52;9.70;99.90
35593;DHT22;64447;52.140;5.602;2024-02-14T04:13:20;9.80;99.90
35593;DHT22;64447;52.140;5.602;2024-02-14T04:15:46;9.80;99.90
35593;DHT22;64447;52.140;5.602;2024-02-14T04:18:13;9.80;99.90
35593;DHT22;64447;52.140;5.602;2024-02-14T04:20:40;9.80;99.90
35593;DHT22;64447;52.140;5.602;2024-02-14T04:23:06;9.90;99.90
35593;DHT22;64447;52.140;5.602;2024-02-14T04:25:33;9.90;99.90
35593;DHT22;64447;52.140;5.602;2024-02-14T04:27:59;9.90;99.90
35593;DHT22;64447;52.140;5.602;2024-02-14T04:30:25;9.90;99.90
35593;DHT22;64447;52.140;5.602;2024-02-14T04:32:51;10.00;99.90
35593;DHT22;64447;52.140;5.602;2024-02-14T04:35:21;10.00;99.90
35593;DHT22;64447;52.140;5.602;2024-02-14T04:37:46;10.00;99.90
35593;DHT22;64447;52.140;5.602;2024-02-14T04:40:13;10.00;99.90
35593;DHT22;64447;52.140;5.602;2024-02-14T04:42:40;10.00;99.90
35593;DHT22;64447;52.140;5.602;2024-02-14T04:45:06;10.10;99.90
35593;DHT22;64447;52.140;5.602;2024-02-14T04:47:32;10.10;99.90
35593;DHT22;64447;52.140;5.602;2024-02-14T04:49:58;10.10;99.90
35593;DHT22;64447;52.140;5.602;2024-02-14T04:52:24;10.10;99.90
35593;DHT22;64447;52.140;5.602;2024-02-14T04:54:49;10.10;99.90
35593;DHT22;64447;52.140;5.602;2024-02-14T04:57:15;10.20;99.90
35593;DHT22;64447;52.140;5.602;2024-02-14T04:59:41;10.10;99.90
35593;DHT22;64447;52.140;5.602;2024-02-14T05:02:06;10.20;99.90
35593;DHT22;64447;52.140;5.602;2024-02-14T05:04:32;10.20;99.90
35593;DHT22;64447;52.140;5.602;2024-02-14T05:07:00;10.20;99.90
35593;DHT22;64447;52.140;5.602;2024-02-14T05:09:26;10.20;99.90
35593;DHT22;64447;52.140;5.602;2024-02-14T05:11:52;10.20;99.90
35593;DHT22;64447;52.140;5.602;2024-02-14T05:14:17;10.30;99.90
35593;DHT22;64447;52.140;5.602;2024-02-14T05:16:43;10.30;99.90
35593;DHT22;64447;52.140;5.602;2024-02-14T05:19:09;10.30;99.90
35593;DHT22;64447;52.140;5.602;2024-02-14T05:21:35;10.30;99.90
35593;DHT22;64447;52.140;5.602;2024-02-14T05:24:01;10.30;99.90
35593;DHT22;64447;52.140;5.602;2024-02-14T05:26:27;10.30;99.90
35593;DHT22;64447;52.140;5.602;2024-02-14T05:28:52;10.30;99.90
35593;DHT22;64447;52.140;5.602;2024-02-14T05:31:18;10.30;99.90
35593;DHT22;64447;52.140;5.602;2024-02-14T05:33:43;10.30;99.90
35593;DHT22;64447;52.140;5.602;2024-02-14T05:36:09;10.30;99.90
35593;DHT22;64447;52.140;5.602;2024-02-14T05:38:35;10.30;99.90
35593;DHT22;64447;52.140;5.602;2024-02-14T05:41:01;10.30;99.90
35593;DHT22;64447;52.140;5.602;2024-02-14T05:43:27;10.40;99.90
35593;DHT22;64447;52.140;5.602;2024-02-14T05:45:52;10.30;99.90
35593;DHT22;64447;52.140;5.602;2024-02-14T05:48:19;10.30;99.90
35593;DHT22;64447;52.140;5.602;2024-02-14T05:50:45;10.30;99.90
35593;DHT22;64447;52.140;5.602;2024-02-14T05:53:11;10.30;99.90
35593;DHT22;64447;52.140;5.602;2024-02-14T05:55:38;10.30;99.90
35593;DHT22;64447;52.140;5.602;2024-02-14T05:58:04;10.30;99.90
35593;DHT22;64447;52.140;5.602;2024-02-14T06:00:29;10.30;99.90
35593;DHT22;64447;52.140;5.602;2024-02-14T06:02:56;10.40;99.90
35593;DHT22;64447;52.140;5.602;2024-02-14T06:05:21;10.40;99.90
35593;DHT22;64447;52.140;5.602;2024-02-14T06:07:47;10.40;99.90
35593;DHT22;64447;52.140;5.602;2024-02-14T06:10:13;10.40;99.90
35593;DHT22;64447;52.140;5.602;2024-02-14T06:12:39;10.40;99.90
35593;DHT22;64447;52.140;5.602;2024-02-14T06:15:06;10.40;99.90
35593;DHT22;64447;52.140;5.602;2024-02-14T06:17:33;10.30;99.90
35593;DHT22;64447;52.140;5.602;2024-02-14T06:19:58;10.40;99.90
35593;DHT22;64447;52.140;5.602;2024-02-14T06:22:25;10.40;99.90
35593;DHT22;64447;52.140;5.602;2024-02-14T06:24:51;10.40;99.90
35593;DHT22;64447;52.140;5.602;2024-02-14T06:27:16;10.30;99.90
35593;DHT22;64447;52.140;5.602;2024-02-14T06:29:43;10.40;99.90
35593;DHT22;64447;52.140;5.602;2024-02-14T06:32:09;10.40;99.90
35593;DHT22;64447;52.140;5.602;2024-02-14T06:34:34;10.30;99.90
35593;DHT22;64447;52.140;5.602;2024-02-14T06:37:00;10.30;99.90
35593;DHT22;64447;52.140;5.602;2024-02-14T06:39:26;10.30;99.90
35593;DHT22;64447;52.140;5.602;2024-02-14T06:41:52;10.30;99.90
35593;DHT22;64447;52.140;5.602;2024-02-14T06:44:17;10.30;99.90
35593;DHT22;64447;52.140;5.602;2024-02-14T06:46:44;10.40;99.90
35593;DHT22;64447;52.140;5.602;2024-02-14T06:49:09;10.40;99.90
35593;DHT22;64447;52.140;5.602;2024-02-14T06:51:35;10.40;99.90
35593;DHT22;64447;52.140;5.602;2024-02-14T06:54:01;10.40;99.90
35593;DHT22;64447;52.140;5.602;2024-02-14T06:56:26;10.40;99.90
35593;DHT22;64447;52.140;5.602;2024-02-14T06:58:52;10.40;99.90
35593;DHT22;64447;52.140;5.602;2024-02-14T07:01:25;10.30;99.90
35593;DHT22;64447;52.140;5.602;2024-02-14T07:03:51;10.40;99.90
35593;DHT22;64447;52.140;5.602;2024-02-14T07:06:17;10.40;99.90
35593;DHT22;64447;52.140;5.602;2024-02-14T07:08:43;10.40;99.90
35593;DHT22;64447;52.140;5.602;2024-02-14T07:11:09;10.40;99.90
35593;DHT22;64447;52.140;5.602;2024-02-14T07:13:34;10.40;99.90
35593;DHT22;64447;52.140;5.602;2024-02-14T07:16:00;10.40;99.90
35593;DHT22;64447;52.140;5.602;2024-02-14T07:18:26;10.40;99.90
35593;DHT22;64447;52.140;5.602;2024-02-14T07:20:51;10.40;99.90
35593;DHT22;64447;52.140;5.602;2024-02-14T07:23:18;10.50;99.90
35593;DHT22;64447;52.140;5.602;2024-02-14T07:25:44;10.50;99.90
35593;DHT22;64447;52.140;5.602;2024-02-14T07:28:10;10.50;99.90
35593;DHT22;64447;52.140;5.602;2024-02-14T07:30:36;10.50;99.90
35593;DHT22;64447;52.140;5.602;2024-02-14T07:33:02;10.50;99.90
35593;DHT22;64447;52.140;5.602;2024-02-14T07:35:27;10.50;99.90
35593;DHT22;64447;52.140;5.602;2024-02-14T07:37:54;10.50;99.90
35593;DHT22;64447;52.140;5.602;2024-02-14T07:40:21;10.50;99.90
35593;DHT22;64447;52.140;5.602;2024-02-14T07:42:47;10.50;99.90
35593;DHT22;64447;52.140;5.602;2024-02-14T07:45:13;10.50;99.90
35593;DHT22;64447;52.140;5.602;2024-02-14T07:47:38;10.50;99.90
35593;DHT22;64447;52.140;5.602;2024-02-14T07:50:06;10.50;99.90
35593;DHT22;64447;52.140;5.602;2024-02-14T07:52:32;10.50;99.90
35593;DHT22;64447;52.140;5.602;2024-02-14T07:54:57;10.50;99.90
35593;DHT22;64447;52.140;5.602;2024-02-14T07:57:23;10.60;99.90
35593;DHT22;64447;52.140;5.602;2024-02-14T07:59:51;10.60;99.90
35593;DHT22;64447;52.140;5.602;2024-02-14T08:02:17;10.60;99.90
35593;DHT22;64447;52.140;5.602;2024-02-14T08:04:43;10.70;99.90
35593;DHT22;64447;52.140;5.602;2024-02-14T08:07:09;10.60;99.90
35593;DHT22;64447;52.140;5.602;2024-02-14T08:09:35;10.60;99.90
35593;DHT22;64447;52.140;5.602;2024-02-14T08:12:01;10.60;99.90
35593;DHT22;64447;52.140;5.602;2024-02-14T08:14:27;10.60;99.90
35593;DHT22;64447;52.140;5.602;2024-02-14T08:16:53;10.70;99.90
35593;DHT22;64447;52.140;5.602;2024-02-14T08:19:19;10.70;99.90
35593;DHT22;64447;52.140;5.602;2024-02-14T08:21:45;10.70;99.90
35593;DHT22;64447;52.140;5.602;2024-02-14T08:24:10;10.60;99.90
35593;DHT22;64447;52.140;5.602;2024-02-14T08:26:36;10.60;99.90
35593;DHT22;64447;52.140;5.602;2024-02-14T08:29:02;10.60;99.90
35593;DHT22;64447;52.140;5.602;2024-02-14T08:31:28;10.60;99.90
35593;DHT22;64447;52.140;5.602;2024-02-14T08:33:54;10.60;99.90
35593;DHT22;64447;52.140;5.602;2024-02-14T08:36:20;10.60;99.90
35593;DHT22;64447;52.140;5.602;2024-02-14T08:38:46;10.60;99.90
35593;DHT22;64447;52.140;5.602;2024-02-14T08:41:12;10.60;99.90
35593;DHT22;64447;52.140;5.602;2024-02-14T08:43:38;10.70;99.90
35593;DHT22;64447;52.140;5.602;2024-02-14T08:46:09;10.60;99.90
35593;DHT22;64447;52.140;5.602;2024-02-14T08:48:35;10.60;99.90
35593;DHT22;64447;52.140;5.602;2024-02-14T08:51:01;10.60;99.90
35593;DHT22;64447;52.140;5.602;2024-02-14T08:53:29;10.60;99.90
35593;DHT22;64447;52.140;5.602;2024-02-14T08:55:55;10.70;99.90
35593;DHT22;64447;52.140;5.602;2024-02-14T08:58:21;10.70;99.90
35593;DHT22;64447;52.140;5.602;2024-02-14T09:00:48;10.70;99.90
35593;DHT22;64447;52.140;5.602;2024-02-14T09:03:14;10.70;99.90
35593;DHT22;64447;52.140;5.602;2024-02-14T09:05:39;10.80;99.90
35593;DHT22;64447;52.140;5.602;2024-02-14T09:08:05;10.80;99.90
35593;DHT22;64447;52.140;5.602;2024-02-14T09:10:31;10.80;99.90
35593;DHT22;64447;52.140;5.602;2024-02-14T09:12:56;10.90;99.90
35593;DHT22;64447;52.140;5.602;2024-02-14T09:15:22;10.90;99.90
35593;DHT22;64447;52.140;5.602;2024-02-14T09:17:48;10.90;99.90
35593;DHT22;64447;52.140;5.602;2024-02-14T09:20:13;10.90;99.90
35593;DHT22;64447;52.140;5.602;2024-02-14T09:22:42;10.90;99.90
35593;DHT22;64447;52.140;5.602;2024-02-14T09:25:08;10.80;99.90
35593;DHT22;64447;52.140;5.602;2024-02-14T09:27:36;10.90;99.90
35593;DHT22;64447;52.140;5.602;2024-02-14T09:30:03;10.90;99.90
35593;DHT22;64447;52.140;5.602;2024-02-14T09:32:32;10.90;99.90
35593;DHT22;64447;52.140;5.602;2024-02-14T09:34:59;10.90;99.90
35593;DHT22;64447;52.140;5.602;2024-02-14T09:37:25;10.90;99.90
35593;DHT22;64447;52.140;5.602;2024-02-14T09:39:51;10.90;99.90
35593;DHT22;64447;52.140;5.602;2024-02-14T09:42:21;10.90;99.90
35593;DHT22;64447;52.140;5.602;2024-02-14T09:44:50;10.90;99.90
35593;DHT22;64447;52.140;5.602;2024-02-14T09:47:18;11.00;99.90
35593;DHT22;64447;52.140;5.602;2024-02-14T09:49:44;11.00;99.90
35593;DHT22;64447;52.140;5.602;2024-02-14T09:52:12;11.00;99.90
35593;DHT22;64447;52.140;5.602;2024-02-14T09:54:38;11.00;99.90
35593;DHT22;64447;52.140;5.602;2024-02-14T09:57:05;11.10;99.90
35593;DHT22;64447;52.140;5.602;2024-02-14T09:59:32;11.00;99.90
35593;DHT22;64447;52.140;5.602;2024-02-14T10:01:58;11.10;99.90
35593;DHT22;64447;52.140;5.602;2024-02-14T10:04:23;11.00;99.90
35593;DHT22;64447;52.140;5.602;2024-02-14T10:06:50;11.00;99.90
35593;DHT22;64447;52.140;5.602;2024-02-14T10:09:22;11.10;99.90
35593;DHT22;64447;52.140;5.602;2024-02-14T10:11:49;11.10;99.90
35593;DHT22;64447;52.140;5.602;2024-02-14T10:14:14;11.00;99.90
35593;DHT22;64447;52.140;5.602;2024-02-14T10:16:40;11.00;99.90
35593;DHT22;64447;52.140;5.602;2024-02-14T10:19:18;11.00;99.90
35593;DHT22;64447;52.140;5.602;2024-02-14T10:21:54;11.00;99.90
35593;DHT22;64447;52.140;5.602;2024-02-14T10:24:21;11.10;99.90
35593;DHT22;64447;52.140;5.602;2024-02-14T10:26:47;11.10;99.90
35593;DHT22;64447;52.140;5.602;2024-02-14T10:29:13;11.20;99.90
35593;DHT22;64447;52.140;5.602;2024-02-14T10:31:40;11.30;99.90
35593;DHT22;64447;52.140;5.602;2024-02-14T10:34:06;11.30;99.90
35593;DHT22;64447;52.140;5.602;2024-02-14T10:36:33;11.30;99.90
35593;DHT22;64447;52.140;5.602;2024-02-14T10:39:01;11.30;99.90
35593;DHT22;64447;52.140;5.602;2024-02-14T10:41:30;11.30;99.90
35593;DHT22;64447;52.140;5.602;2024-02-14T10:44:04;11.30;99.90
35593;DHT22;64447;52.140;5.602;2024-02-14T10:46:36;11.30;99.90
35593;DHT22;64447;52.140;5.602;2024-02-14T10:49:04;11.30;99.90
35593;DHT22;64447;52.140;5.602;2024-02-14T10:51:35;11.40;99.90
35593;DHT22;64447;52.140;5.602;2024-02-14T10:54:11;11.40;99.90
35593;DHT22;64447;52.140;5.602;2024-02-14T10:56:39;11.40;99.90
35593;DHT22;64447;52.140;5.602;2024-02-14T10:59:08;11.40;99.90
35593;DHT22;64447;52.140;5.602;2024-02-14T11:01:34;11.40;99.90
35593;DHT22;64447;52.140;5.602;2024-02-14T11:04:00;11.40;99.90
35593;DHT22;64447;52.140;5.602;2024-02-14T11:06:26;11.50;99.90
35593;DHT22;64447;52.140;5.602;2024-02-14T11:09:01;11.60;99.90
35593;DHT22;64447;52.140;5.602;2024-02-14T11:11:32;11.60;99.90
35593;DHT22;64447;52.140;5.602;2024-02-14T11:13:58;11.60;99.90
35593;DHT22;64447;52.140;5.602;2024-02-14T11:16:27;11.60;99.90
35593;DHT22;64447;52.140;5.602;2024-02-14T11:19:11;11.60;99.90
35593;DHT22;64447;52.140;5.602;2024-02-14T11:21:41;11.60;99.90
35593;DHT22;64447;52.140;5.602;2024-02-14T11:24:11;11.60;99.90
35593;DHT22;64447;52.140;5.602;2024-02-14T11:26:45;11.70;99.90
35593;DHT22;64447;52.140;5.602;2024-02-14T11:29:14;11.60;99.90
35593;DHT22;64447;52.140;5.602;2024-02-14T11:31:41;11.70;99.90
35593;DHT22;64447;52.140;5.602;2024-02-14T11:34:11;11.70;99.90
35593;DHT22;64447;52.140;5.602;2024-02-14T11:36:37;11.70;99.90
35593;DHT22;64447;52.140;5.602;2024-02-14T11:39:04;11.80;99.90
35593;DHT22;64447;52.140;5.602;2024-02-14T11:41:33;11.80;99.90
35593;DHT22;64447;52.140;5.602;2024-02-14T11:44:06;11.80;99.90
35593;DHT22;64447;52.140;5.602;2024-02-14T11:46:36;11.80;99.90
35593;DHT22;64447;52.140;5.602;2024-02-14T11:49:03;11.80;99.90
35593;DHT22;64447;52.140;5.602;2024-02-14T11:51:30;11.70;99.90
35593;DHT22;64447;52.140;5.602;2024-02-14T11:53:59;11.70;99.90
35593;DHT22;64447;52.140;5.602;2024-02-14T11:56:31;11.70;99.90
35593;DHT22;64447;52.140;5.602;2024-02-14T11:59:00;11.80;99.90
35593;DHT22;64447;52.140;5.602;2024-02-14T12:01:31;11.70;99.90
35593;DHT22;64447;52.140;5.602;2024-02-14T12:04:01;11.70;99.90
35593;DHT22;64447;52.140;5.602;2024-02-14T12:06:31;11.70;99.90
35593;DHT22;64447;52.140;5.602;2024-02-14T12:09:00;11.70;99.90
35593;DHT22;64447;52.140;5.602;2024-02-14T12:11:36;11.70;99.90
35593;DHT22;64447;52.140;5.602;2024-02-14T12:14:08;11.70;99.90
35593;DHT22;64447;52.140;5.602;2024-02-14T12:16:35;11.80;99.90
35593;DHT22;64447;52.140;5.602;2024-02-14T12:21:38;11.80;99.90
35593;DHT22;64447;52.140;5.602;2024-02-14T12:24:08;11.80;99.90
35593;DHT22;64447;52.140;5.602;2024-02-14T12:26:38;11.80;99.90
35593;DHT22;64447;52.140;5.602;2024-02-14T12:29:05;11.70;99.90
35593;DHT22;64447;52.140;5.602;2024-02-14T12:31:32;11.80;99.90
35593;DHT22;64447;52.140;5.602;2024-02-14T12:33:58;11.80;99.90
35593;DHT22;64447;52.140;5.602;2024-02-14T12:36:28;11.80;99.90
35593;DHT22;64447;52.140;5.602;2024-02-14T12:38:55;11.80;99.90
35593;DHT22;64447;52.140;5.602;2024-02-14T12:41:21;11.70;99.90
35593;DHT22;64447;52.140;5.602;2024-02-14T12:43:49;11.80;99.90
35593;DHT22;64447;52.140;5.602;2024-02-14T12:46:14;11.80;99.90
35593;DHT22;64447;52.140;5.602;2024-02-14T12:48:40;11.80;99.90
35593;DHT22;64447;52.140;5.602;2024-02-14T12:51:07;11.80;99.90
35593;DHT22;64447;52.140;5.602;2024-02-14T12:53:33;11.80;99.90
35593;DHT22;64447;52.140;5.602;2024-02-14T12:55:59;11.70;99.90
35593;DHT22;64447;52.140;5.602;2024-02-14T12:58:25;11.80;99.90
35593;DHT22;64447;52.140;5.602;2024-02-14T13:00:51;11.80;99.90
35593;DHT22;64447;52.140;5.602;2024-02-14T13:03:16;11.80;99.90
35593;DHT22;64447;52.140;5.602;2024-02-14T13:05:42;11.90;99.90
35593;DHT22;64447;52.140;5.602;2024-02-14T13:08:08;11.90;99.90
35593;DHT22;64447;52.140;5.602;2024-02-14T13:10:36;11.90;99.90
35593;DHT22;64447;52.140;5.602;2024-02-14T13:13:01;11.80;99.90
35593;DHT22;64447;52.140;5.602;2024-02-14T13:15:27;11.80;99.90
35593;DHT22;64447;52.140;5.602;2024-02-14T13:17:53;11.80;99.90
35593;DHT22;64447;52.140;5.602;2024-02-14T13:20:19;11.80;99.90
35593;DHT22;64447;52.140;5.602;2024-02-14T13:22:45;11.80;99.90
35593;DHT22;64447;52.140;5.602;2024-02-14T13:25:11;11.90;99.90
35593;DHT22;64447;52.140;5.602;2024-02-14T13:27:37;11.90;99.90
35593;DHT22;64447;52.140;5.602;2024-02-14T13:30:04;11.90;99.90
35593;DHT22;64447;52.140;5.602;2024-02-14T13:32:30;11.90;99.90
35593;DHT22;64447;52.140;5.602;2024-02-14T13:34:55;12.00;99.90
35593;DHT22;64447;52.140;5.602;2024-02-14T13:37:22;12.00;99.90
35593;DHT22;64447;52.140;5.602;2024-02-14T13:39:48;12.00;99.90
35593;DHT22;64447;52.140;5.602;2024-02-14T13:42:14;12.00;99.90
35593;DHT22;64447;52.140;5.602;2024-02-14T13:44:39;12.00;99.90
35593;DHT22;64447;52.140;5.602;2024-02-14T13:47:05;12.10;99.90
35593;DHT22;64447;52.140;5.602;2024-02-14T13:49:32;12.20;99.90
35593;DHT22;64447;52.140;5.602;2024-02-14T13:51:57;12.20;99.90
35593;DHT22;64447;52.140;5.602;2024-02-14T13:54:24;12.20;99.90
35593;DHT22;64447;52.140;5.602;2024-02-14T13:56:50;12.20;99.90
35593;DHT22;64447;52.140;5.602;2024-02-14T13:59:16;12.10;99.90
35593;DHT22;64447;52.140;5.602;2024-02-14T14:01:42;12.10;99.90
35593;DHT22;64447;52.140;5.602;2024-02-14T14:04:08;12.10;99.90
35593;DHT22;64447;52.140;5.602;2024-02-14T14:06:34;12.10;99.90
35593;DHT22;64447;52.140;5.602;2024-02-14T14:09:00;12.10;99.90
35593;DHT22;64447;52.140;5.602;2024-02-14T14:11:26;12.10;99.90
35593;DHT22;64447;52.140;5.602;2024-02-14T14:13:51;12.10;99.90
35593;DHT22;64447;52.140;5.602;2024-02-14T14:16:17;12.10;99.90
35593;DHT22;64447;52.140;5.602;2024-02-14T14:18:43;12.10;99.90
35593;DHT22;64447;52.140;5.602;2024-02-14T14:21:08;12.00;99.90
35593;DHT22;64447;52.140;5.602;2024-02-14T14:23:34;12.00;99.90
35593;DHT22;64447;52.140;5.602;2024-02-14T14:26:00;12.00;99.90
35593;DHT22;64447;52.140;5.602;2024-02-14T14:28:26;12.10;99.90
35593;DHT22;64447;52.140;5.602;2024-02-14T14:30:55;12.10;99.90
35593;DHT22;64447;52.140;5.602;2024-02-14T14:33:22;12.00;99.90
35593;DHT22;64447;52.140;5.602;2024-02-14T14:35:48;12.10;99.90
35593;DHT22;64447;52.140;5.602;2024-02-14T14:38:20;12.10;99.90
35593;DHT22;64447;52.140;5.602;2024-02-14T14:40:47;12.10;99.90
35593;DHT22;64447;52.140;5.602;2024-02-14T14:43:13;12.20;99.90
35593;DHT22;64447;52.140;5.602;2024-02-14T14:45:39;12.20;99.90
35593;DHT22;64447;52.140;5.602;2024-02-14T14:48:06;12.20;99.90
35593;DHT22;64447;52.140;5.602;2024-02-14T14:50:34;12.20;99.90
35593;DHT22;64447;52.140;5.602;2024-02-14T14:53:00;12.20;99.90
35593;DHT22;64447;52.140;5.602;2024-02-14T14:58:35;12.20;99.90
35593;DHT22;64447;52.140;5.602;2024-02-14T15:01:01;12.20;99.90
35593;DHT22;64447;52.140;5.602;2024-02-14T15:03:29;12.20;99.90
35593;DHT22;64447;52.140;5.602;2024-02-14T15:05:55;12.30;99.90
35593;DHT22;64447;52.140;5.602;2024-02-14T15:08:20;12.20;99.90
35593;DHT22;64447;52.140;5.602;2024-02-14T15:10:54;12.30;99.90
35593;DHT22;64447;52.140;5.602;2024-02-14T15:13:24;12.30;99.90
35593;DHT22;64447;52.140;5.602;2024-02-14T15:15:50;12.20;99.90
35593;DHT22;64447;52.140;5.602;2024-02-14T15:18:15;12.30;99.90
35593;DHT22;64447;52.140;5.602;2024-02-14T15:20:41;12.30;99.90
35593;DHT22;64447;52.140;5.602;2024-02-14T15:23:08;12.20;99.90
35593;DHT22;64447;52.140;5.602;2024-02-14T15:25:34;12.40;99.90
35593;DHT22;64447;52.140;5.602;2024-02-14T15:28:10;12.40;99.90
35593;DHT22;64447;52.140;5.602;2024-02-14T15:30:47;12.60;99.90
35593;DHT22;64447;52.140;5.602;2024-02-14T15:33:31;12.50;99.90
35593;DHT22;64447;52.140;5.602;2024-02-14T15:35:57;12.50;99.90
35593;DHT22;64447;52.140;5.602;2024-02-14T15:38:24;12.40;99.90